Weather History for Camdenton, MO

Change the Weather History Date:

Tuesday, October 25, 2011

  Actual Average (KAIZ) Record (KAIZ)
Temperature  
Mean Temperature 70 °F -  
Max Temperature 80 °F 64 °F 82 °F (2004)
Min Temperature 59 °F 44 °F 24 °F (2013)
Cooling Degree Days 4    
Growing Degree Days 20 (Base 50)    
Moisture  
Dew Point 51 °F    
Average Humidity 54    
Maximum Humidity 68    
Minimum Humidity 37    
Precipitation  
Precipitation 0.00 in - - ()
Sea Level Pressure  
Sea Level Pressure 29.94 in    
Wind  
Wind Speed 11 mph ()    
Max Wind Speed 22 mph    
Max Gust Speed 32 mph    
Visibility 10.0 miles    
Events      
Averages and records for this station are not official NWS values.
T = Trace of Precipitation, MM = Missing Value Source: Averaged Metar Reports

Daily Weather History Graph

Daily Weather History Graph

Search for Another Location

Airport:

Trip Planner

Search our weather history database for the weather conditions in past years. The results will help you decide how hot, cold, wet, or windy it might be!

Date:

Astronomy

Oct. 25, 2011 Rise Set
Actual Time 7:28 AM CDT 6:20 PM CDT
Civil Twilight 7:02 AM CDT 6:47 PM CDT
Nautical Twilight 6:31 AM CDT 7:17 PM CDT
Astronomical Twilight 6:00 AM CDT 7:48 PM CDT
Moon 6:02 AM CDT (10/25) 5:22 PM CDT (10/25)
Length of Visible Light 11h 45m
Length of Day
10h 51m
Waning Crescent, 2% of the Moon is Illuminated
Oct 25
Waning Crescent
Oct 26
New
Nov 2
First Quarter
Nov 10
Full
Nov 18
Last Quarter

Hourly Weather History & Observations

Time (CDT) Temp. Heat Index Dew Point Humidity Pressure Visibility Wind Dir Wind Speed Gust Speed Precip Events Conditions
12:35 AM 62.6 °F - 46.4 °F 55% 30.09 in 10.0 mi SSE 8.1 mph - N/A   Clear
12:55 AM 62.6 °F - 48.2 °F 59% 30.09 in 10.0 mi SSE 8.1 mph - N/A   Clear
1:15 AM 62.6 °F - 48.2 °F 59% 30.08 in 10.0 mi SSE 9.2 mph - N/A   Clear
1:35 AM 60.8 °F - 48.2 °F 63% 30.08 in 10.0 mi SSE 9.2 mph - N/A   Clear
1:55 AM 60.8 °F - 48.2 °F 63% 30.08 in 10.0 mi SSE 10.4 mph - N/A   Clear
2:15 AM 60.8 °F - 50.0 °F 68% 30.07 in 10.0 mi SSE 9.2 mph - N/A   Clear
2:35 AM 60.8 °F - 50.0 °F 68% 30.07 in 10.0 mi SSE 10.4 mph - N/A   Clear
2:55 AM 60.8 °F - 50.0 °F 68% 30.06 in 10.0 mi SSE 8.1 mph - N/A   Clear
3:15 AM 60.8 °F - 50.0 °F 68% 30.06 in 10.0 mi SSE 10.4 mph - N/A   Clear
3:35 AM 60.8 °F - 50.0 °F 68% 30.06 in 10.0 mi South 9.2 mph - N/A   Clear
3:55 AM 60.8 °F - 50.0 °F 68% 30.05 in 10.0 mi South 10.4 mph - N/A   Clear
4:15 AM 60.8 °F - 50.0 °F 68% 30.04 in 10.0 mi South 9.2 mph - N/A   Clear
4:35 AM 60.8 °F - 50.0 °F 68% 30.04 in 10.0 mi SSE 10.4 mph - N/A   Clear
4:55 AM 60.8 °F - 48.2 °F 63% 30.04 in 10.0 mi SSE 10.4 mph - N/A   Clear
5:15 AM 60.8 °F - 48.2 °F 63% 30.03 in 10.0 mi South 12.7 mph 20.7 mph N/A   Clear
5:35 AM 60.8 °F - 46.4 °F 59% 30.03 in 10.0 mi SSE 11.5 mph - N/A   Clear
5:55 AM 60.8 °F - 46.4 °F 59% 30.02 in 10.0 mi SSE 11.5 mph 17.3 mph N/A   Clear
6:15 AM 60.8 °F - 46.4 °F 59% 30.02 in 10.0 mi SSE 11.5 mph 19.6 mph N/A   Clear
6:35 AM 60.8 °F - 46.4 °F 59% 30.02 in 10.0 mi South 10.4 mph - N/A   Clear
6:55 AM 59.0 °F - 46.4 °F 63% 30.02 in 10.0 mi SSE 10.4 mph 16.1 mph N/A   Clear
7:15 AM 59.0 °F - 46.4 °F 63% 30.01 in 10.0 mi South 10.4 mph 17.3 mph N/A   Clear
7:35 AM 59.0 °F - 46.4 °F 63% 30.01 in 10.0 mi SSE 10.4 mph 17.3 mph N/A   Clear
8:15 AM 60.8 °F - 46.4 °F 59% 30.01 in 10.0 mi South 10.4 mph 17.3 mph N/A   Clear
8:35 AM 60.8 °F - 46.4 °F 59% 30.01 in 10.0 mi SSE 10.4 mph 17.3 mph N/A   Clear
8:55 AM 62.6 °F - 48.2 °F 59% 30.01 in 10.0 mi South 10.4 mph 19.6 mph N/A   Clear
9:15 AM 64.4 °F - 50.0 °F 59% 30.00 in 10.0 mi South 13.8 mph 23.0 mph N/A   Clear
9:35 AM 68.0 °F - 50.0 °F 52% 29.99 in 10.0 mi South 17.3 mph 26.5 mph N/A   Clear
9:55 AM 69.8 °F - 51.8 °F 53% 29.99 in 10.0 mi South 16.1 mph 23.0 mph N/A   Clear
10:15 AM 69.8 °F - 51.8 °F 53% 29.97 in 10.0 mi South 20.7 mph 28.8 mph N/A   Clear
10:35 AM 71.6 °F - 51.8 °F 50% 29.97 in 10.0 mi South 18.4 mph 27.6 mph N/A   Clear
10:55 AM 73.4 °F - 51.8 °F 47% 29.96 in 10.0 mi South 19.6 mph 25.3 mph N/A   Clear
11:15 AM 73.4 °F - 51.8 °F 47% 29.96 in 10.0 mi South 15.0 mph 20.7 mph N/A   Clear
11:55 AM 77.0 °F - 53.6 °F 44% 29.94 in 10.0 mi South 21.9 mph 31.1 mph N/A   Clear
12:15 PM 77.0 °F - 53.6 °F 44% 29.93 in 10.0 mi South 15.0 mph 31.1 mph N/A   Clear
12:35 PM 77.0 °F - 53.6 °F 44% 29.92 in 10.0 mi South 20.7 mph 31.1 mph N/A   Clear
12:55 PM 78.8 °F - 53.6 °F 42% 29.90 in 10.0 mi South 18.4 mph 27.6 mph N/A   Clear
1:15 PM 78.8 °F - 53.6 °F 42% 29.90 in 10.0 mi South 17.3 mph 27.6 mph N/A   Clear
1:35 PM 78.8 °F - 53.6 °F 42% 29.88 in 10.0 mi South 20.7 mph 32.2 mph N/A   Clear
2:15 PM 78.8 °F - 55.4 °F 44% 29.85 in 10.0 mi South 13.8 mph 25.3 mph N/A   Clear
2:35 PM 80.6 °F 80.3 °F 53.6 °F 39% 29.84 in 10.0 mi South 19.6 mph 31.1 mph N/A   Clear
3:15 PM 80.6 °F 80.3 °F 53.6 °F 39% 29.83 in 10.0 mi South 18.4 mph 26.5 mph N/A   Clear
3:35 PM 80.6 °F 80.3 °F 53.6 °F 39% 29.82 in 10.0 mi South 20.7 mph 29.9 mph N/A   Clear
3:55 PM 80.6 °F 80.3 °F 53.6 °F 39% 29.81 in 10.0 mi South 20.7 mph 31.1 mph N/A   Clear
4:15 PM 80.6 °F 80.3 °F 53.6 °F 39% 29.81 in 10.0 mi South 19.6 mph 28.8 mph N/A   Clear
4:35 PM 80.6 °F - 51.8 °F 37% 29.80 in 10.0 mi South 19.6 mph 29.9 mph N/A   Clear
4:55 PM 80.6 °F - 51.8 °F 37% 29.80 in 10.0 mi South 21.9 mph 31.1 mph N/A   Clear
5:15 PM 78.8 °F - 51.8 °F 39% 29.80 in 10.0 mi South 20.7 mph 28.8 mph N/A   Clear
5:35 PM 78.8 °F - 51.8 °F 39% 29.80 in 10.0 mi South 15.0 mph 26.5 mph N/A   Clear
5:55 PM 78.8 °F - 51.8 °F 39% 29.82 in 10.0 mi South 17.3 mph 21.9 mph N/A   Clear
6:35 PM 75.2 °F - 53.6 °F 47% 29.84 in 10.0 mi SSW 10.4 mph 26.5 mph N/A   Clear
6:55 PM 75.2 °F - 53.6 °F 47% 29.84 in 10.0 mi South 10.4 mph 16.1 mph N/A   Clear
7:15 PM 73.4 °F - 53.6 °F 50% 29.85 in 10.0 mi South 9.2 mph - N/A   Clear
7:35 PM 73.4 °F - 53.6 °F 50% 29.86 in 10.0 mi South 8.1 mph - N/A   Scattered Clouds
8:15 PM 73.4 °F - 53.6 °F 50% 29.86 in 10.0 mi South 9.2 mph 16.1 mph N/A   Overcast
8:35 PM 73.4 °F - 53.6 °F 50% 29.86 in 10.0 mi SSE 9.2 mph - N/A   Overcast
8:55 PM 71.6 °F - 53.6 °F 53% 29.86 in 10.0 mi South 9.2 mph 17.3 mph N/A   Overcast
9:15 PM 71.6 °F - 53.6 °F 53% 29.87 in 10.0 mi South 9.2 mph - N/A   Overcast
9:35 PM 71.6 °F - 53.6 °F 53% 29.87 in 10.0 mi South 9.2 mph - N/A   Overcast
9:55 PM 69.8 °F - 53.6 °F 56% 29.87 in 10.0 mi South 11.5 mph 16.1 mph N/A   Mostly Cloudy
10:15 PM 69.8 °F - 53.6 °F 56% 29.87 in 10.0 mi South 10.4 mph - N/A   Mostly Cloudy
10:35 PM 69.8 °F - 53.6 °F 56% 29.87 in 10.0 mi South 12.7 mph 17.3 mph N/A   Scattered Clouds
10:55 PM 69.8 °F - 55.4 °F 60% 29.87 in 10.0 mi South 11.5 mph 18.4 mph N/A   Mostly Cloudy
11:15 PM 69.8 °F - 55.4 °F 60% 29.87 in 10.0 mi South 10.4 mph 17.3 mph N/A   Mostly Cloudy
11:35 PM 69.8 °F - 55.4 °F 60% 29.87 in 10.0 mi South 10.4 mph - N/A   Mostly Cloudy
11:55 PM 69.8 °F - 55.4 °F 60% 29.87 in 10.0 mi SSW 11.5 mph - N/A   Mostly Cloudy